Time;durP1;ratioP1;P1;durP2;ratioP2;P2;SDS_P1;SDS_P2;PMS_P1;PMS_P2;Temp;Humidity;BMP_temperature;BMP_pressure;BME280_temperature;BME280_humidity;BME280_pressure;Samples;Min_cycle;Max_cycle;Signal;HPM_P1;HPM_P2
2022/08/14 00:01:47;;;;;;;7.30;5.50;;;;;;;20.48;66.65;100754.14;107483;1282;72967;-82
2022/08/14 00:04:22;;;;;;;6.70;5.10;;;;;;;20.46;66.92;100748.05;107363;1282;61002;-83
2022/08/14 00:07:10;;;;;;;7.20;5.00;;;;;;;20.44;66.97;100747.27;107422;1281;60955;-82
2022/08/14 00:09:41;;;;;;;7.90;4.80;;;;;;;20.41;67.16;100744.66;107381;1281;76760;-82
2022/08/14 00:12:28;;;;;;;5.40;4.80;;;;;;;20.36;67.33;100747.84;107368;1281;73161;-81
2022/08/14 00:15:28;;;;;;;5.70;5.00;;;;;;;20.30;67.59;100746.71;107381;1282;72683;-82
2022/08/14 00:17:56;;;;;;;5.90;5.00;;;;;;;20.26;67.87;100746.95;107429;1281;62226;-82
2022/08/14 00:20:30;;;;;;;5.60;4.70;;;;;;;20.23;68.01;100746.63;107280;1284;60604;-82
2022/08/14 00:23:11;;;;;;;7.30;5.00;;;;;;;20.20;67.91;100751.40;106961;1282;77533;-81
2022/08/14 00:25:46;;;;;;;6.70;5.00;;;;;;;20.19;68.15;100754.19;107296;1282;72623;-82
2022/08/14 00:28:25;;;;;;;5.90;5.30;;;;;;;20.17;68.44;100749.84;107225;1282;72974;-82
2022/08/14 00:30:58;;;;;;;7.20;5.10;;;;;;;20.15;68.46;100744.79;107040;1282;62029;-82
2022/08/14 00:33:26;;;;;;;6.40;5.20;;;;;;;20.13;68.65;100744.03;107362;1282;60762;-82
2022/08/14 00:36:17;;;;;;;8.80;5.30;;;;;;;20.12;68.70;100746.16;107171;1284;78613;-82
2022/08/14 00:39:03;;;;;;;7.10;5.40;;;;;;;20.07;68.73;100746.06;107475;1282;74400;-81
2022/08/14 00:41:32;;;;;;;8.60;5.60;;;;;;;20.01;68.97;100743.68;107352;1281;73157;-81
2022/08/14 00:43:59;;;;;;;5.80;5.20;;;;;;;19.94;69.12;100738.76;107453;1282;61959;-81
2022/08/14 00:46:27;;;;;;;6.10;5.20;;;;;;;19.89;69.23;100729.54;107560;1282;60845;-81
2022/08/14 00:48:59;;;;;;;8.10;5.50;;;;;;;19.84;69.27;100723.33;107162;1282;76399;-82
2022/08/14 00:51:31;;;;;;;7.40;5.90;;;;;;;19.79;69.32;100713.11;106987;1282;71538;-81
2022/08/14 00:54:05;;;;;;;9.00;6.30;;;;;;;19.75;69.63;100710.00;107212;1282;72870;-82
2022/08/14 00:56:48;;;;;;;8.40;6.70;;;;;;;19.72;69.82;100710.31;107269;1281;62289;-82
2022/08/14 00:59:15;;;;;;;6.50;5.60;;;;;;;19.69;70.11;100717.70;107357;1281;61532;-82
2022/08/14 01:01:43;;;;;;;7.00;6.30;;;;;;;19.65;70.35;100721.16;107187;1282;76133;-82
2022/08/14 01:04:12;;;;;;;7.50;6.10;;;;;;;19.63;70.61;100717.56;107219;1282;73844;-82
2022/08/14 01:06:59;;;;;;;7.90;6.30;;;;;;;19.62;70.85;100717.41;107338;1281;74003;-82
2022/08/14 01:09:35;;;;;;;7.50;5.90;;;;;;;19.59;71.18;100711.98;106932;1281;61448;-82
2022/08/14 01:12:03;;;;;;;6.90;6.20;;;;;;;19.56;71.30;100710.80;107230;1282;61092;-81
2022/08/14 01:14:30;;;;;;;10.10;6.20;;;;;;;19.55;71.38;100708.09;107404;1282;75817;-81
2022/08/14 01:16:58;;;;;;;8.80;6.50;;;;;;;19.56;71.51;100701.05;107296;1283;72234;-81
2022/08/14 01:22:14;;;;;;;7.90;6.00;;;;;;;19.57;71.66;100696.00;107384;1281;63871;-81
2022/08/14 01:24:45;;;;;;;7.00;6.20;;;;;;;19.59;71.82;100690.98;107236;1282;61347;-82
2022/08/14 01:27:18;;;;;;;7.30;6.30;;;;;;;19.59;71.83;100696.36;106972;1282;76878;-81
2022/08/14 01:29:46;;;;;;;8.10;6.90;;;;;;;19.57;71.94;100695.68;107296;1282;72688;-81
2022/08/14 01:32:31;;;;;;;7.30;6.20;;;;;;;19.52;72.11;100693.10;107610;1281;73448;-81
2022/08/14 01:35:09;;;;;;;9.00;6.20;;;;;;;19.48;72.18;100692.69;107345;1281;63279;-81
2022/08/14 01:37:56;;;;;;;8.00;6.40;;;;;;;19.46;72.20;100687.52;107472;1282;62630;-81
2022/08/14 01:40:25;;;;;;;7.50;6.70;;;;;;;19.40;72.49;100686.84;107327;1281;76373;-81
2022/08/14 01:43:14;;;;;;;7.80;6.80;;;;;;;19.30;72.81;100678.33;107505;1281;70719;-81
2022/08/14 01:45:48;;;;;;;9.00;7.70;;;;;;;19.25;73.11;100678.68;107102;1281;73550;-82
2022/08/14 01:48:33;;;;;;;8.40;6.30;;;;;;;19.27;73.23;100677.34;107602;1281;63247;-82
2022/08/14 01:51:06;;;;;;;7.30;6.60;;;;;;;19.30;73.25;100677.04;107210;1282;61895;-81
2022/08/14 01:53:49;;;;;;;7.80;6.50;;;;;;;19.34;73.27;100676.05;107368;1282;75038;-81
2022/08/14 01:56:34;;;;;;;8.30;7.40;;;;;;;19.37;73.18;100678.27;107267;1282;71291;-84
2022/08/14 01:59:07;;;;;;;8.50;6.90;;;;;;;19.38;73.35;100679.86;107402;1282;73097;-81
2022/08/14 02:01:37;;;;;;;7.60;6.80;;;;;;;19.41;73.24;100676.20;107240;1281;62028;-81
2022/08/14 02:04:08;;;;;;;9.50;7.60;;;;;;;19.45;73.07;100671.73;107000;1281;62085;-81
2022/08/14 02:06:55;;;;;;;8.40;7.00;;;;;;;19.48;73.30;100670.88;107155;1281;77239;-82
2022/08/14 02:09:22;;;;;;;7.80;6.80;;;;;;;19.49;73.32;100671.41;107314;1282;71355;-82
2022/08/14 02:11:51;;;;;;;7.00;6.30;;;;;;;19.50;73.33;100668.52;106996;1283;73051;-81
2022/08/14 02:14:21;;;;;;;7.40;6.10;;;;;;;19.52;73.37;100666.08;107139;1281;65071;-82
2022/08/14 02:16:58;;;;;;;8.50;6.90;;;;;;;19.56;73.26;100668.59;107111;1281;62129;-81
2022/08/14 02:19:28;;;;;;;7.30;6.70;;;;;;;19.57;73.27;100669.14;107124;1282;76997;-81
2022/08/14 02:22:01;;;;;;;8.10;7.20;;;;;;;19.57;73.13;100668.40;107407;1281;71447;-81
2022/08/14 02:24:30;;;;;;;8.10;7.30;;;;;;;19.58;73.26;100670.66;107213;1281;74500;-81
2022/08/14 02:27:07;;;;;;;7.70;6.80;;;;;;;19.58;73.25;100666.36;107218;1281;64629;-81
2022/08/14 02:29:55;;;;;;;7.90;6.90;;;;;;;19.57;73.35;100662.80;107142;1281;63120;-81
2022/08/14 02:32:29;;;;;;;8.70;7.10;;;;;;;19.57;73.44;100659.61;107244;1282;77430;-81
2022/08/14 02:35:12;;;;;;;9.50;7.70;;;;;;;19.55;73.47;100663.59;106967;1282;71169;-81
2022/08/14 02:37:39;;;;;;;8.50;7.30;;;;;;;19.54;73.66;100658.34;106939;1284;72668;-81
2022/08/14 02:40:17;;;;;;;8.90;7.20;;;;;;;19.53;73.63;100654.65;107222;1282;62455;-81
2022/08/14 02:42:44;;;;;;;8.00;7.10;;;;;;;19.53;73.77;100653.46;107002;1282;62122;-81
2022/08/14 02:45:32;;;;;;;8.40;7.20;;;;;;;19.52;73.61;100652.31;107235;1281;75247;-81
2022/08/14 02:48:12;;;;;;;7.70;6.90;;;;;;;19.50;73.65;100650.55;107115;1283;72219;-81
2022/08/14 02:50:59;;;;;;;7.80;6.90;;;;;;;19.48;73.66;100652.16;107237;1281;74215;-81
2022/08/14 02:53:28;;;;;;;8.50;7.30;;;;;;;19.43;73.62;100651.67;106996;1282;62272;-82
2022/08/14 02:55:58;;;;;;;7.90;7.00;;;;;;;19.39;73.76;100646.53;107059;1284;62006;-81
2022/08/14 02:58:31;;;;;;;8.40;7.00;;;;;;;19.37;73.83;100642.66;106923;1282;76278;-81
2022/08/14 03:00:59;;;;;;;8.90;7.20;;;;;;;19.32;73.93;100639.37;107167;1281;72045;-81
2022/08/14 03:03:27;;;;;;;9.00;7.20;;;;;;;19.27;74.01;100634.59;107164;1283;75066;-81
2022/08/14 03:05:58;;;;;;;9.10;7.60;;;;;;;19.24;74.11;100632.41;107071;1281;62463;-81
2022/08/14 03:08:30;;;;;;;8.60;7.40;;;;;;;19.20;74.41;100627.39;107219;1283;61863;-81
2022/08/14 03:11:05;;;;;;;9.90;7.40;;;;;;;19.14;74.55;100627.52;107254;1282;75707;-81
2022/08/14 03:13:39;;;;;;;8.10;7.20;;;;;;;19.11;74.52;100633.83;107455;1281;72420;-81
2022/08/14 03:16:13;;;;;;;8.20;7.40;;;;;;;19.07;74.62;100629.92;107349;1282;73186;-81
2022/08/14 03:18:57;;;;;;;8.90;7.40;;;;;;;19.03;74.69;100626.65;107222;1281;62547;-81
2022/08/14 03:21:26;;;;;;;8.60;7.20;;;;;;;19.01;74.68;100625.90;107452;1282;60880;-81
2022/08/14 03:24:15;;;;;;;9.00;7.00;;;;;;;18.98;74.78;100625.61;107245;1281;76759;-81
2022/08/14 03:26:48;;;;;;;8.00;7.10;;;;;;;18.94;74.97;100623.48;107458;1281;72695;-82
2022/08/14 03:29:23;;;;;;;8.40;6.90;;;;;;;18.92;75.21;100623.81;107293;1281;73076;-81
2022/08/14 03:31:52;;;;;;;9.20;7.10;;;;;;;18.89;75.48;100618.89;107242;1284;62199;-81
2022/08/14 03:34:22;;;;;;;8.70;7.90;;;;;;;18.87;75.71;100615.83;107142;1282;61622;-83
2022/08/14 03:37:04;;;;;;;8.10;6.90;;;;;;;18.82;75.69;100614.13;107184;1282;75427;-81
2022/08/14 03:39:52;;;;;;;8.30;7.10;;;;;;;18.78;76.13;100617.16;107301;1281;73678;-82
2022/08/14 03:42:21;;;;;;;9.90;7.70;;;;;;;18.72;76.48;100617.60;107246;1282;73212;-81
2022/08/14 03:44:50;;;;;;;9.40;8.10;;;;;;;18.68;76.62;100612.34;107128;1282;62288;-81
2022/08/14 03:47:40;;;;;;;9.10;7.50;;;;;;;18.65;76.97;100606.20;107347;1281;63643;-82
2022/08/14 03:50:22;;;;;;;8.30;7.50;;;;;;;18.63;77.16;100603.23;107002;1282;77205;-81
2022/08/14 03:53:00;;;;;;;8.60;7.40;;;;;;;18.61;77.19;100594.87;107402;1281;74481;-81
2022/08/14 03:55:27;;;;;;;8.70;7.70;;;;;;;18.60;77.35;100598.06;107162;1282;72745;-81
2022/08/14 03:57:57;;;;;;;9.50;8.00;;;;;;;18.59;77.50;100599.64;107178;1281;63221;-80
2022/08/14 04:00:28;;;;;;;8.50;7.70;;;;;;;18.60;77.50;100602.62;107015;1282;61658;-81
2022/08/14 04:03:10;;;;;;;9.90;7.50;;;;;;;18.59;77.54;100598.08;107361;1282;75727;-80
2022/08/14 04:05:45;;;;;;;8.00;7.20;;;;;;;18.60;77.63;100599.55;107013;1284;71237;-80
2022/08/14 04:08:15;;;;;;;9.50;7.50;;;;;;;18.61;77.52;100598.72;107303;1282;73025;-80
2022/08/14 04:10:58;;;;;;;9.50;7.40;;;;;;;18.62;77.60;100594.57;107097;1282;62056;-80
2022/08/14 04:13:29;;;;;;;8.80;7.70;;;;;;;18.62;77.59;100590.81;107471;1282;60609;-81
2022/08/14 04:16:29;;;;;;;8.60;7.10;;;;;;;18.60;77.58;100588.88;106957;1282;76783;-82
2022/08/14 04:18:58;;;;;;;8.20;7.00;;;;;;;18.61;77.94;100588.99;106870;1281;72053;-80
2022/08/14 04:21:28;;;;;;;8.00;7.20;;;;;;;18.60;78.13;100587.85;107248;1281;74277;-80
2022/08/14 04:23:58;;;;;;;8.20;7.40;;;;;;;18.60;78.33;100589.47;107399;1282;64475;-81
2022/08/14 04:26:27;;;;;;;9.30;8.30;;;;;;;18.62;78.57;100582.86;107239;1281;60579;-81
2022/08/14 04:29:08;;;;;;;8.60;7.70;;;;;;;18.65;78.70;100578.90;107047;1283;76382;-81
2022/08/14 04:31:42;;;;;;;8.80;8.00;;;;;;;18.69;78.79;100580.60;107560;1281;72840;-81
2022/08/14 04:34:29;;;;;;;9.50;7.70;;;;;;;18.72;78.72;100578.64;107448;1281;75798;-81
2022/08/14 04:45:24;;;;;;;9.30;7.50;;;;;;;18.92;78.62;100563.67;107355;1281;71555;-81
2022/08/14 04:48:13;;;;;;;8.60;7.70;;;;;;;18.99;78.53;100560.38;107323;1281;71898;-81
2022/08/14 04:51:01;;;;;;;7.90;7.10;;;;;;;19.06;78.56;100559.04;107147;1281;62753;-81
2022/08/14 04:53:30;;;;;;;12.30;11.00;;;;;;;19.12;78.48;100562.28;107010;1284;61029;-84
2022/08/14 04:56:08;;;;;;;9.50;8.50;;;;;;;19.18;78.45;100558.49;107251;1282;76986;-80
2022/08/14 04:58:59;;;;;;;15.30;10.90;;;;;;;19.25;78.36;100557.50;107421;1281;72864;-81
2022/08/14 05:01:28;;;;;;;11.10;9.00;;;;;;;19.31;78.44;100559.20;107260;1281;72843;-81
2022/08/14 05:04:06;;;;;;;9.60;8.60;;;;;;;19.37;78.44;100555.90;107260;1281;62242;-81
2022/08/14 05:06:33;;;;;;;9.80;8.10;;;;;;;19.44;78.38;100548.77;107449;1281;62029;-82
2022/08/14 05:09:06;;;;;;;9.50;7.40;;;;;;;19.50;78.19;100551.42;107272;1281;76932;-82
2022/08/14 05:11:39;;;;;;;8.70;7.80;;;;;;;19.57;78.18;100550.05;107581;1281;71443;-82
2022/08/14 05:14:06;;;;;;;9.60;7.40;;;;;;;19.62;77.98;100550.59;107337;1281;74214;-81
2022/08/14 05:16:56;;;;;;;8.00;7.20;;;;;;;19.68;77.89;100554.58;107799;1281;63989;-82
2022/08/14 05:19:27;;;;;;;7.40;6.70;;;;;;;19.76;77.78;100556.39;107597;1281;62039;-83
2022/08/14 05:21:59;;;;;;;7.40;6.70;;;;;;;19.85;77.53;100553.23;107655;1284;75371;-83
2022/08/14 05:24:49;;;;;;;8.40;7.50;;;;;;;19.94;77.08;100548.38;107826;1281;71093;-82
2022/08/14 05:27:19;;;;;;;10.30;9.00;;;;;;;20.04;76.80;100547.77;108156;1280;74032;-82
2022/08/14 05:29:51;;;;;;;8.20;7.40;;;;;;;20.12;76.43;100549.04;107538;1282;62032;-82
2022/08/14 05:32:18;;;;;;;9.50;7.70;;;;;;;20.18;76.36;100550.88;107651;1281;61124;-82
2022/08/14 05:34:46;;;;;;;9.10;7.40;;;;;;;20.28;76.34;100541.41;107745;1281;74997;-82
2022/08/14 05:37:13;;;;;;;7.50;6.50;;;;;;;20.37;75.98;100539.77;107543;1281;70341;-83
2022/08/14 05:39:42;;;;;;;9.20;7.70;;;;;;;20.45;75.85;100530.74;107591;1282;75191;-83
2022/08/14 05:42:09;;;;;;;7.30;6.60;;;;;;;20.52;75.64;100526.28;107645;1281;62538;-84
2022/08/14 05:44:53;;;;;;;10.10;8.20;;;;;;;20.61;75.34;100524.73;107461;1282;62028;-83
2022/08/14 05:47:22;;;;;;;8.80;7.10;;;;;;;20.71;75.39;100526.50;107526;1282;76297;-82
2022/08/14 05:49:49;;;;;;;7.30;6.10;;;;;;;20.82;75.17;100527.69;107457;1282;71474;-84
2022/08/14 05:52:18;;;;;;;7.30;6.50;;;;;;;20.91;74.80;100521.34;107543;1281;72382;-81
2022/08/14 05:55:07;;;;;;;8.20;6.70;;;;;;;21.03;74.66;100518.06;107449;1281;63628;-86
2022/08/14 05:57:45;;;;;;;6.50;5.80;;;;;;;21.13;74.27;100513.30;107488;1282;59841;-82
2022/08/14 06:00:13;;;;;;;7.80;6.80;;;;;;;21.25;73.94;100513.22;107696;1282;75897;-81
2022/08/14 06:02:57;;;;;;;10.70;8.50;;;;;;;21.41;73.56;100514.36;107668;1282;72211;-81
2022/08/14 06:05:26;;;;;;;9.60;6.40;;;;;;;21.57;73.22;100516.45;107458;1281;72939;-82
2022/08/14 06:07:56;;;;;;;6.70;5.40;;;;;;;21.74;72.67;100512.42;107364;1282;62021;-82
2022/08/14 06:10:23;;;;;;;5.70;5.10;;;;;;;21.93;71.95;100512.89;107740;1281;60686;-80
2022/08/14 06:12:54;;;;;;;6.00;5.30;;;;;;;22.02;70.74;100518.55;107606;1281;75600;-83
2022/08/14 06:15:32;;;;;;;6.80;5.70;;;;;;;22.10;70.60;100516.05;107642;1282;71784;-81
2022/08/14 06:18:00;;;;;;;6.40;5.60;;;;;;;22.21;70.26;100513.65;107626;1282;74093;-79
2022/08/14 06:20:29;;;;;;;6.00;5.20;;;;;;;22.30;69.94;100509.60;107684;1281;62838;-81
2022/08/14 06:22:56;;;;;;;6.80;5.60;;;;;;;22.42;69.68;100509.16;107666;1281;61363;-81
2022/08/14 06:25:26;;;;;;;6.50;5.80;;;;;;;22.55;69.25;100499.29;107663;1281;75716;-81
2022/08/14 06:27:53;;;;;;;6.90;5.30;;;;;;;22.68;68.91;100500.26;107321;1281;73030;-81
2022/08/14 06:30:23;;;;;;;6.60;5.20;;;;;;;22.81;68.41;100500.39;107096;1282;73040;-82
2022/08/14 06:33:11;;;;;;;6.70;5.30;;;;;;;22.94;67.88;100493.33;106949;1281;63697;-82
2022/08/14 06:35:41;;;;;;;7.00;5.30;;;;;;;23.08;67.78;100489.70;107185;1282;60603;-81
2022/08/14 06:38:14;;;;;;;8.80;5.30;;;;;;;23.24;67.32;100494.64;106864;1282;75432;-81
2022/08/14 06:40:44;;;;;;;7.60;5.00;;;;;;;23.37;66.79;100490.85;107279;1282;71182;-82
2022/08/14 06:43:12;;;;;;;5.40;4.90;;;;;;;23.51;66.15;100489.43;106864;1282;71010;-82
2022/08/14 06:45:43;;;;;;;5.60;5.00;;;;;;;23.61;65.73;100488.48;106923;1281;64274;-82
2022/08/14 06:48:22;;;;;;;6.20;5.30;;;;;;;23.73;65.38;100489.00;106804;1282;61192;-82
2022/08/14 06:50:51;;;;;;;5.30;4.70;;;;;;;23.80;64.98;100485.90;107024;1282;75937;-82
2022/08/14 06:53:19;;;;;;;6.00;4.80;;;;;;;23.87;64.99;100486.77;106904;1282;71268;-82
2022/08/14 06:55:46;;;;;;;5.80;4.70;;;;;;;23.94;64.63;100488.52;107247;1282;74043;-81
2022/08/14 06:58:29;;;;;;;5.30;4.60;;;;;;;24.08;64.74;100486.85;106916;1282;63234;-82
2022/08/14 07:06:50;;;;;;;5.50;4.90;;;;;;;24.43;63.33;100491.89;107313;1281;72177;-81
2022/08/14 07:09:21;;;;;;;5.40;4.90;;;;;;;24.54;62.80;100485.52;107238;1281;73338;-81
2022/08/14 07:11:49;;;;;;;5.40;4.80;;;;;;;24.65;62.55;100478.77;107338;1281;62241;-81
2022/08/14 07:14:16;;;;;;;5.80;5.10;;;;;;;24.76;62.23;100484.67;107253;1282;62013;-81
2022/08/14 07:16:43;;;;;;;5.40;4.90;;;;;;;24.89;62.11;100484.36;107435;1280;75745;-83
2022/08/14 07:19:10;;;;;;;7.10;4.70;;;;;;;25.03;61.59;100485.23;107003;1280;72926;-82
2022/08/14 07:21:38;;;;;;;5.20;4.70;;;;;;;25.14;61.09;100481.08;107080;1282;74971;-82
2022/08/14 07:24:05;;;;;;;5.80;4.90;;;;;;;25.25;60.77;100477.46;107263;1281;62649;-81
2022/08/14 07:26:48;;;;;;;5.10;4.60;;;;;;;25.34;60.24;100478.69;107108;1282;62144;-80
2022/08/14 07:29:15;;;;;;;6.50;4.90;;;;;;;25.34;59.72;100479.89;107205;1281;76212;-82
2022/08/14 07:31:43;;;;;;;5.10;4.60;;;;;;;25.34;59.79;100482.76;107239;1282;70873;-81
2022/08/14 07:34:12;;;;;;;6.70;5.20;;;;;;;25.41;59.84;100480.07;107259;1281;73541;-82
2022/08/14 07:36:59;;;;;;;6.30;5.10;;;;;;;25.58;59.91;100483.30;107008;1281;65011;-82
2022/08/14 07:39:27;;;;;;;6.10;4.60;;;;;;;25.72;59.22;100485.38;107132;1281;60620;-81
2022/08/14 07:41:54;;;;;;;5.10;4.60;;;;;;;25.84;58.70;100489.05;107392;1281;77031;-81
2022/08/14 07:44:21;;;;;;;5.80;5.00;;;;;;;25.97;58.31;100489.21;107483;1281;70172;-83
2022/08/14 07:47:01;;;;;;;5.40;4.30;;;;;;;26.05;57.84;100487.52;107208;1281;74080;-82
2022/08/14 07:49:31;;;;;;;5.90;4.90;;;;;;;26.09;57.73;100484.61;107095;1282;62590;-83
2022/08/14 07:51:58;;;;;;;4.90;4.40;;;;;;;26.18;57.37;100486.66;107468;1281;60709;-83
2022/08/14 07:54:25;;;;;;;7.60;4.60;;;;;;;26.29;57.16;100484.61;107031;1281;76551;-83
2022/08/14 07:56:57;;;;;;;6.40;4.60;;;;;;;26.45;56.94;100486.02;107170;1281;71429;-84
2022/08/14 07:59:27;;;;;;;5.90;4.80;;;;;;;26.56;56.48;100489.00;107175;1282;73941;-83
2022/08/14 08:02:11;;;;;;;5.80;4.30;;;;;;;26.67;56.04;100491.67;107248;1279;62111;-84
2022/08/14 08:04:49;;;;;;;7.10;4.60;;;;;;;26.81;55.90;100488.91;107057;1282;62064;-84
2022/08/14 08:07:20;;;;;;;5.20;4.50;;;;;;;26.95;55.22;100491.00;107126;1282;75667;-84
2022/08/14 08:09:52;;;;;;;7.90;5.00;;;;;;;27.00;54.65;100489.23;107187;1281;72654;-83
2022/08/14 08:12:20;;;;;;;6.70;4.90;;;;;;;27.09;54.76;100487.89;107107;1281;73165;-83
2022/08/14 08:14:52;;;;;;;5.80;5.00;;;;;;;27.20;54.48;100486.73;107223;1281;62140;-83
2022/08/14 08:17:30;;;;;;;6.00;4.90;;;;;;;27.34;53.90;100489.09;107030;1282;60381;-83
2022/08/14 08:20:01;;;;;;;5.50;4.40;;;;;;;27.42;52.94;100479.50;107008;1283;75861;-82
2022/08/14 08:22:28;;;;;;;6.70;5.10;;;;;;;27.43;52.87;100476.77;107045;1282;71454;-83
2022/08/14 08:24:59;;;;;;;6.10;4.60;;;;;;;27.48;53.13;100476.11;107002;1284;71685;-82
2022/08/14 08:27:26;;;;;;;5.30;4.80;;;;;;;27.47;53.02;100484.44;106986;1282;60480;-84
2022/08/14 08:30:08;;;;;;;5.10;4.30;;;;;;;27.48;52.78;100486.11;106891;1282;62729;-82
2022/08/14 08:32:41;;;;;;;5.40;4.80;;;;;;;27.65;52.90;100486.30;107044;1283;75779;-83
2022/08/14 08:35:24;;;;;;;6.00;4.60;;;;;;;27.83;52.47;100482.04;106937;1284;70478;-82
2022/08/14 08:38:16;;;;;;;6.20;5.10;;;;;;;28.07;52.02;100477.05;107225;1283;74625;-83
2022/08/14 08:41:03;;;;;;;6.70;5.10;;;;;;;28.31;50.72;100474.49;107049;1282;63100;-82
2022/08/14 08:43:38;;;;;;;5.10;4.60;;;;;;;28.55;49.58;100471.16;106746;1282;60639;-84
2022/08/14 08:46:19;;;;;;;4.70;4.10;;;;;;;28.68;49.44;100475.73;106732;1283;75695;-81
2022/08/14 08:48:55;;;;;;;5.60;5.00;;;;;;;28.85;49.48;100468.35;106865;1284;71203;-82
2022/08/14 08:51:21;;;;;;;5.80;4.60;;;;;;;29.03;49.08;100462.96;107205;1282;72166;-82
2022/08/14 08:53:59;;;;;;;5.00;4.40;;;;;;;29.15;48.16;100460.13;107215;1282;60551;-83
2022/08/14 08:56:33;;;;;;;5.40;4.90;;;;;;;29.21;47.92;100461.88;107102;1282;62087;-82
2022/08/14 08:59:22;;;;;;;6.80;4.70;;;;;;;29.24;47.80;100453.11;107185;1282;77116;-83
2022/08/14 09:02:02;;;;;;;5.20;4.70;;;;;;;29.28;47.58;100447.63;106928;1283;71437;-83
2022/08/14 09:04:36;;;;;;;5.30;4.80;;;;;;;29.21;46.98;100443.52;107023;1282;73453;-82
2022/08/14 09:07:13;;;;;;;6.30;5.10;;;;;;;29.12;47.26;100443.31;107261;1282;61689;-82
2022/08/14 09:09:52;;;;;;;5.70;5.20;;;;;;;29.13;47.71;100444.55;107343;1282;60362;-83
2022/08/14 09:12:27;;;;;;;6.00;4.50;;;;;;;29.27;47.51;100445.12;107121;1282;76839;-83
2022/08/14 09:15:08;;;;;;;5.90;5.30;;;;;;;29.26;46.93;100446.40;106871;1284;71492;-82
2022/08/14 09:17:39;;;;;;;6.40;5.10;;;;;;;29.22;46.54;100445.34;107096;1283;73608;-83
2022/08/14 09:20:09;;;;;;;7.20;4.90;;;;;;;29.20;47.00;100442.83;107124;1284;63307;-82
2022/08/14 09:22:41;;;;;;;6.00;5.00;;;;;;;29.24;47.01;100430.50;107159;1283;61055;-82
2022/08/14 09:25:15;;;;;;;5.50;4.80;;;;;;;29.36;47.23;100426.62;106712;1283;76748;-82
2022/08/14 09:27:42;;;;;;;6.00;4.90;;;;;;;29.39;46.50;100426.27;107049;1282;71447;-83
2022/08/14 09:30:10;;;;;;;7.80;5.00;;;;;;;29.26;46.27;100429.21;107056;1284;72547;-82
2022/08/14 09:32:59;;;;;;;6.10;4.90;;;;;;;29.24;46.69;100424.59;107135;1282;63031;-82
2022/08/14 09:35:47;;;;;;;6.80;4.30;;;;;;;29.27;46.29;100418.02;107111;1284;59595;-82
2022/08/14 09:38:37;;;;;;;5.80;4.70;;;;;;;29.36;46.57;100414.56;106975;1284;75124;-81
2022/08/14 09:41:27;;;;;;;6.40;5.10;;;;;;;29.43;46.15;100415.05;107258;1284;71247;-82
2022/08/14 09:44:32;;;;;;;7.60;4.70;;;;;;;29.48;46.02;100412.80;107076;1283;75036;-82
2022/08/14 09:46:59;;;;;;;5.40;4.30;;;;;;;29.54;45.45;100414.02;107308;1281;60739;-82
2022/08/14 09:49:34;;;;;;;4.80;3.90;;;;;;;29.55;45.23;100410.00;107006;1283;63013;-82
2022/08/14 09:52:14;;;;;;;8.50;4.70;;;;;;;29.40;44.88;100404.57;106985;1282;75820;-82
2022/08/14 09:55:00;;;;;;;5.20;4.70;;;;;;;29.39;45.19;100403.34;107004;1283;72849;-82
2022/08/14 09:57:38;;;;;;;6.30;4.20;;;;;;;29.44;45.30;100394.52;106842;1283;73356;-82
2022/08/14 10:00:13;;;;;;;6.60;4.70;;;;;;;29.49;45.17;100394.04;106791;1282;60929;-82
2022/08/14 10:03:01;;;;;;;6.00;5.10;;;;;;;29.60;45.54;100388.02;107103;1282;62046;-82
2022/08/14 10:05:34;;;;;;;7.30;4.90;;;;;;;29.72;45.13;100384.95;106750;1284;77367;-83
2022/08/14 10:08:16;;;;;;;5.70;5.00;;;;;;;29.87;45.53;100384.98;107120;1282;72658;-82
2022/08/14 10:10:51;;;;;;;6.00;5.20;;;;;;;30.01;45.04;100380.94;106876;1283;74249;-82
2022/08/14 10:13:28;;;;;;;5.20;4.60;;;;;;;30.14;44.12;100367.39;107154;1283;60618;-83
2022/08/14 10:16:15;;;;;;;6.40;4.80;;;;;;;30.34;44.11;100370.98;107019;1282;63374;-83
2022/08/14 10:19:13;;;;;;;5.70;4.70;;;;;;;30.61;43.60;100369.41;107025;1284;75744;-83
2022/08/14 10:21:46;;;;;;;6.60;4.60;;;;;;;30.79;42.06;100364.88;107080;1284;71108;-82
2022/08/14 10:24:45;;;;;;;6.50;4.80;;;;;;;30.81;41.97;100365.27;106995;1284;75702;-83
2022/08/14 10:27:22;;;;;;;5.90;4.70;;;;;;;30.88;41.80;100362.60;106895;1283;61126;-83
2022/08/14 10:29:53;;;;;;;4.40;4.00;;;;;;;30.96;40.92;100354.18;107132;1284;60644;-82
2022/08/14 10:32:21;;;;;;;5.10;4.20;;;;;;;30.95;40.32;100346.87;106804;1284;76104;-82
2022/08/14 10:35:09;;;;;;;5.20;4.10;;;;;;;30.88;41.01;100352.73;106851;1283;70935;-82
2022/08/14 10:37:51;;;;;;;5.30;4.20;;;;;;;30.68;40.23;100351.73;107226;1283;73086;-82
2022/08/14 10:40:29;;;;;;;6.00;4.50;;;;;;;30.65;39.92;100344.52;106879;1284;62138;-81
2022/08/14 10:43:25;;;;;;;5.70;4.40;;;;;;;30.83;40.07;100337.11;106936;1283;62069;-82
2022/08/14 10:46:02;;;;;;;4.80;3.80;;;;;;;30.97;38.91;100337.70;106903;1284;77031;-82
2022/08/14 10:49:01;;;;;;;5.80;4.10;;;;;;;31.03;38.51;100330.96;106861;1283;73431;-83
2022/08/14 10:51:33;;;;;;;6.20;4.70;;;;;;;31.15;38.48;100328.81;107124;1284;74425;-82
2022/08/14 10:54:07;;;;;;;5.90;3.90;;;;;;;31.27;38.86;100324.04;106732;1284;62136;-82
2022/08/14 10:56:56;;;;;;;4.50;4.00;;;;;;;31.42;38.59;100322.67;106812;1284;62994;-82
2022/08/14 10:59:23;;;;;;;5.70;4.10;;;;;;;31.53;37.76;100318.85;106759;1284;74756;-82
2022/08/14 11:02:01;;;;;;;5.70;4.00;;;;;;;31.65;37.47;100311.52;107066;1283;72468;-82
2022/08/14 11:04:29;;;;;;;6.90;4.00;;;;;;;31.69;36.87;100316.26;105480;1284;1517639;-82
2022/08/14 11:06:57;;;;;;;5.00;4.00;;;;;;;31.72;37.29;100309.86;106798;1284;62092;-83
2022/08/14 11:09:24;;;;;;;4.50;4.10;;;;;;;31.74;37.52;100306.84;106836;1284;60659;-82
2022/08/14 11:11:55;;;;;;;5.30;4.50;;;;;;;31.83;37.29;100305.41;107190;1281;76814;-82
2022/08/14 11:14:53;;;;;;;4.30;3.60;;;;;;;31.96;36.41;100302.33;106963;1284;72855;-83
2022/08/14 11:17:27;;;;;;;5.70;4.00;;;;;;;32.03;36.40;100295.36;107364;1283;72371;-82
2022/08/14 11:20:00;;;;;;;4.40;3.90;;;;;;;32.16;37.14;100295.40;107157;1282;61956;-82
2022/08/14 11:22:30;;;;;;;5.20;3.90;;;;;;;32.27;35.79;100295.41;107300;1282;60327;-83
2022/08/14 11:25:19;;;;;;;5.10;3.80;;;;;;;32.45;35.54;100294.60;107202;1284;77105;-83
2022/08/14 11:27:48;;;;;;;5.00;4.00;;;;;;;32.44;34.92;100292.45;106783;1284;71161;-82
2022/08/14 11:30:18;;;;;;;5.80;4.30;;;;;;;32.53;35.60;100291.63;106736;1284;73929;-80
2022/08/14 11:33:06;;;;;;;6.80;4.70;;;;;;;32.62;35.70;100285.02;107262;1282;62206;-81
2022/08/14 11:35:36;;;;;;;4.70;3.90;;;;;;;32.73;35.99;100283.69;107209;1282;60378;-81
2022/08/14 11:38:14;;;;;;;5.20;4.20;;;;;;;32.81;34.72;100283.52;107168;1282;75728;-81
2022/08/14 11:40:43;;;;;;;4.70;3.90;;;;;;;32.91;34.63;100281.02;107013;1283;71161;-80
2022/08/14 11:43:14;;;;;;;5.10;4.10;;;;;;;33.05;34.83;100284.27;107128;1282;73060;-79
2022/08/14 11:45:46;;;;;;;5.30;4.00;;;;;;;33.06;34.31;100280.62;106896;1282;60760;-81
2022/08/14 11:48:24;;;;;;;4.80;4.20;;;;;;;33.10;34.26;100276.16;106664;1284;61797;-80
2022/08/14 11:51:13;;;;;;;8.30;4.20;;;;;;;33.20;33.74;100273.35;107146;1284;75386;-81
2022/08/14 11:53:42;;;;;;;5.30;3.90;;;;;;;33.24;34.05;100276.33;107139;1284;70702;-80
2022/08/14 11:56:11;;;;;;;5.40;4.40;;;;;;;33.38;34.15;100268.80;107023;1284;74917;-80
2022/08/14 11:58:39;;;;;;;5.50;4.50;;;;;;;33.57;33.91;100259.88;106868;1282;60601;-80
2022/08/14 12:01:08;;;;;;;5.90;4.30;;;;;;;33.78;33.05;100260.27;106771;1284;62083;-80
2022/08/14 12:03:39;;;;;;;5.10;4.20;;;;;;;33.92;32.99;100263.17;106946;1282;75708;-81
2022/08/14 12:06:19;;;;;;;5.50;4.20;;;;;;;34.04;32.42;100257.60;107174;1284;72867;-80
2022/08/14 12:09:04;;;;;;;4.30;3.90;;;;;;;34.25;32.10;100256.15;106866;1284;72984;-81
2022/08/14 12:11:43;;;;;;;5.20;4.00;;;;;;;34.36;31.66;100253.42;106812;1284;60855;-80